Time;durP1;ratioP1;P1;durP2;ratioP2;P2;SDS_P1;SDS_P2;PMS_P1;PMS_P2;Temp;Humidity;BMP_temperature;BMP_pressure;BME280_temperature;BME280_humidity;BME280_pressure;Samples;Min_cycle;Max_cycle;Signal;HPM_P1;HPM_P2
2024/01/19 00:00:07;;;;;;;6.50;4.90;;;;;;;0.67;52.64;100631.94;672656;29;1120;-90
2024/01/19 00:02:28;;;;;;;6.30;3.95;;;;;;;0.74;52.15;100638.38;678410;29;680;-90
2024/01/19 00:02:48;;;;;;;6.97;3.72;;;;;;;0.74;52.08;100630.69;672572;29;1363;-89
2024/01/19 00:03:09;;;;;;;6.68;3.67;;;;;;;0.71;52.10;100627.03;672441;29;1281;-89
2024/01/19 00:03:30;;;;;;;8.05;3.90;;;;;;;0.67;52.54;100628.50;669738;29;1131;-89
2024/01/19 00:03:51;;;;;;;7.65;4.00;;;;;;;0.77;52.25;100641.16;667408;29;1195;-90
2024/01/19 00:04:17;;;;;;;7.00;4.33;;;;;;;0.75;52.26;100640.16;667886;29;1468;-89
2024/01/19 00:04:37;;;;;;;4.50;3.90;;;;;;;0.76;52.13;100646.16;672474;29;1126;-90
2024/01/19 00:04:58;;;;;;;4.10;3.70;;;;;;;0.72;52.17;100634.81;672649;29;1292;-90
2024/01/19 00:05:19;;;;;;;3.67;3.38;;;;;;;0.66;52.30;100635.31;672625;29;1089;-90
2024/01/19 00:05:41;;;;;;;4.32;3.60;;;;;;;0.67;52.58;100636.19;669812;29;1435;-90
2024/01/19 00:06:02;;;;;;;6.53;3.90;;;;;;;0.69;52.47;100644.00;670076;29;1728;-90
2024/01/19 00:06:23;;;;;;;6.65;4.10;;;;;;;0.70;52.48;100644.09;670046;29;1019;-90
2024/01/19 00:06:43;;;;;;;6.20;4.15;;;;;;;0.66;52.28;100639.56;667429;29;1316;-90
2024/01/19 00:07:04;;;;;;;4.63;4.13;;;;;;;0.65;52.33;100645.47;669981;29;1172;-90
2024/01/19 00:07:25;;;;;;;5.20;4.40;;;;;;;0.60;52.24;100628.88;669455;29;1148;-89
2024/01/19 00:07:48;;;;;;;4.63;4.10;;;;;;;0.75;52.61;100654.66;670016;29;1085;-90
2024/01/19 00:08:08;;;;;;;5.40;4.00;;;;;;;0.58;52.74;100631.34;669862;29;1340;-90
2024/01/19 00:08:29;;;;;;;4.10;3.40;;;;;;;0.61;52.04;100641.81;669686;29;1189;-89
2024/01/19 00:08:50;;;;;;;5.10;3.80;;;;;;;0.56;52.19;100638.06;670204;29;758;-89
2024/01/19 00:09:14;;;;;;;4.57;3.80;;;;;;;0.54;52.27;100634.50;670015;29;1167;-90
2024/01/19 00:09:34;;;;;;;5.50;4.15;;;;;;;0.52;52.66;100642.09;670747;29;1249;-90
2024/01/19 00:09:55;;;;;;;5.10;3.80;;;;;;;0.55;52.23;100638.84;675237;29;853;-90
2024/01/19 00:10:16;;;;;;;5.40;3.53;;;;;;;0.63;52.32;100659.88;675142;29;1114;-90
2024/01/19 00:10:36;;;;;;;5.40;3.50;;;;;;;0.48;52.75;100645.22;675174;29;1048;-89
2024/01/19 00:10:57;;;;;;;6.78;4.25;;;;;;;0.51;52.43;100648.03;675398;29;789;-90
2024/01/19 00:11:18;;;;;;;7.30;4.20;;;;;;;0.52;52.47;100652.38;672518;29;1294;-90
2024/01/19 00:11:38;;;;;;;8.23;4.50;;;;;;;0.47;52.75;100653.72;672579;29;1194;-90
2024/01/19 00:11:59;;;;;;;6.90;4.05;;;;;;;0.53;52.82;100651.56;675175;29;1211;-89
2024/01/19 00:12:20;;;;;;;4.77;4.13;;;;;;;0.45;52.72;100645.03;672493;29;1208;-89
2024/01/19 00:12:40;;;;;;;4.20;3.80;;;;;;;0.47;52.36;100645.16;672476;29;1533;-90
2024/01/19 00:13:01;;;;;;;4.70;4.07;;;;;;;0.50;52.40;100646.25;672595;29;1178;-90
2024/01/19 00:13:22;;;;;;;5.43;4.00;;;;;;;0.51;52.62;100647.13;672440;29;1427;-88
2024/01/19 00:13:43;;;;;;;6.20;4.50;;;;;;;0.46;52.22;100646.81;674181;29;1264;-89
2024/01/19 00:14:03;;;;;;;6.15;4.50;;;;;;;0.44;52.62;100653.53;669980;29;1253;-90
2024/01/19 00:14:25;;;;;;;6.80;4.47;;;;;;;0.51;52.48;100663.44;670034;29;1283;-90
2024/01/19 00:14:45;;;;;;;6.93;4.43;;;;;;;0.44;52.68;100644.94;675013;29;1365;-89
2024/01/19 00:15:07;;;;;;;6.80;4.40;;;;;;;0.40;52.18;100646.41;672549;29;1175;-89
2024/01/19 00:15:28;;;;;;;5.10;4.28;;;;;;;0.44;52.60;100648.41;670051;29;1000;-89
2024/01/19 00:15:48;;;;;;;5.40;4.18;;;;;;;0.41;52.64;100658.44;672377;29;1300;-90
2024/01/19 00:16:09;;;;;;;5.95;4.20;;;;;;;0.43;52.78;100646.63;670004;29;1312;-90
2024/01/19 00:16:30;;;;;;;5.85;3.88;;;;;;;0.50;52.53;100659.09;669925;29;1147;-90
2024/01/19 00:16:50;;;;;;;6.80;3.93;;;;;;;0.55;52.42;100653.34;667639;29;987;-89
2024/01/19 00:17:11;;;;;;;8.13;4.20;;;;;;;0.51;52.37;100644.56;669773;29;916;-88
2024/01/19 00:17:32;;;;;;;7.38;3.92;;;;;;;0.47;52.40;100643.47;669795;29;1288;-90
2024/01/19 00:17:52;;;;;;;5.83;3.60;;;;;;;0.51;52.20;100647.13;670010;29;908;-90
2024/01/19 00:18:13;;;;;;;4.78;3.78;;;;;;;0.53;52.57;100656.72;672466;29;1117;-90
2024/01/19 00:18:33;;;;;;;5.57;4.20;;;;;;;0.47;52.37;100652.84;670311;29;1325;-90
2024/01/19 00:18:54;;;;;;;4.70;4.20;;;;;;;0.47;52.08;100650.28;668714;29;931;-89
2024/01/19 00:19:15;;;;;;;4.97;3.90;;;;;;;0.48;52.22;100646.94;674933;29;1454;-90
2024/01/19 00:19:36;;;;;;;5.67;3.93;;;;;;;0.49;52.47;100654.72;673419;29;1114;-89
2024/01/19 00:19:56;;;;;;;6.22;4.07;;;;;;;0.47;52.69;100653.72;679094;29;1322;-90
2024/01/19 00:20:17;;;;;;;7.10;4.30;;;;;;;0.44;52.31;100643.25;681605;29;1484;-90
2024/01/19 00:20:37;;;;;;;6.57;4.40;;;;;;;0.48;52.62;100650.38;676415;29;1273;-89
2024/01/19 00:20:58;;;;;;;6.07;4.27;;;;;;;0.42;52.59;100647.41;676463;29;793;-89
2024/01/19 00:21:19;;;;;;;6.40;4.40;;;;;;;0.43;52.91;100651.75;671178;29;1257;-89
2024/01/19 00:21:43;;;;;;;5.23;4.10;;;;;;;0.47;52.41;100648.59;673787;29;1227;-89
2024/01/19 00:22:04;;;;;;;4.38;3.83;;;;;;;0.47;52.39;100647.72;676730;29;1281;-89
2024/01/19 00:22:25;;;;;;;4.35;3.95;;;;;;;0.45;52.61;100655.31;676525;29;1058;-89
2024/01/19 00:22:47;;;;;;;5.82;4.22;;;;;;;0.48;52.77;100652.94;672970;29;1336;-90
2024/01/19 00:23:07;;;;;;;5.55;3.78;;;;;;;0.50;52.32;100661.66;671220;29;1202;-90
2024/01/19 00:23:28;;;;;;;5.60;3.42;;;;;;;0.52;52.36;100656.59;671268;29;1587;-90
2024/01/19 00:23:49;;;;;;;3.55;3.10;;;;;;;0.55;52.35;100661.06;673587;29;1266;-89
2024/01/19 00:24:11;;;;;;;4.57;3.50;;;;;;;0.53;52.56;100661.84;675991;29;1062;-90
2024/01/19 00:24:32;;;;;;;4.82;3.85;;;;;;;0.57;52.17;100664.59;672584;29;1267;-89
2024/01/19 00:24:53;;;;;;;5.70;3.95;;;;;;;0.47;52.43;100651.16;673947;29;1287;-90
2024/01/19 00:25:13;;;;;;;7.78;3.85;;;;;;;0.48;52.83;100652.94;675519;29;1293;-90
2024/01/19 00:25:34;;;;;;;7.17;3.30;;;;;;;0.52;52.82;100654.94;671161;29;1300;-89
2024/01/19 00:25:54;;;;;;;7.80;3.87;;;;;;;0.53;52.62;100659.28;674550;29;1398;-90
2024/01/19 00:26:15;;;;;;;5.05;3.90;;;;;;;0.60;52.27;100660.56;675215;29;1277;-90
2024/01/19 00:26:39;;;;;;;4.80;3.63;;;;;;;0.50;52.36;100646.25;680090;29;1190;-89
2024/01/19 00:27:00;;;;;;;5.43;3.85;;;;;;;0.63;52.30;100665.03;675280;29;1309;-90
2024/01/19 00:27:20;;;;;;;5.60;3.97;;;;;;;0.51;52.50;100660.88;671885;29;1267;-90
2024/01/19 00:27:41;;;;;;;6.53;4.47;;;;;;;0.58;52.64;100667.28;675245;29;909;-89
2024/01/19 00:28:02;;;;;;;5.07;4.05;;;;;;;0.50;52.62;100647.91;676847;29;1270;-89
2024/01/19 00:28:23;;;;;;;4.65;4.15;;;;;;;0.52;52.65;100657.50;679769;29;1193;-90
2024/01/19 00:28:43;;;;;;;4.75;4.10;;;;;;;0.57;52.72;100657.81;675053;29;1201;-89
2024/01/19 00:29:04;;;;;;;6.00;4.05;;;;;;;0.57;52.35;100654.34;675282;29;1486;-90
2024/01/19 00:29:25;;;;;;;6.03;3.67;;;;;;;0.55;52.78;100661.06;669924;29;1069;-89
2024/01/19 00:29:46;;;;;;;6.82;3.90;;;;;;;0.53;52.52;100656.72;672433;29;1250;-90
2024/01/19 00:30:06;;;;;;;6.75;3.78;;;;;;;0.55;52.50;100661.06;675158;29;1254;-90
2024/01/19 00:30:27;;;;;;;6.78;4.00;;;;;;;0.59;52.96;100673.34;676503;29;1189;-90
2024/01/19 00:30:48;;;;;;;5.88;4.22;;;;;;;0.62;52.97;100661.59;675458;29;1091;-90
2024/01/19 00:31:09;;;;;;;6.00;4.53;;;;;;;0.55;52.52;100661.97;675001;29;1258;-90
2024/01/19 00:31:29;;;;;;;7.45;4.40;;;;;;;0.59;52.77;100660.50;669978;29;1125;-90
2024/01/19 00:31:50;;;;;;;7.20;4.13;;;;;;;0.57;52.92;100660.38;672206;29;1168;-90
2024/01/19 00:32:11;;;;;;;8.80;4.50;;;;;;;0.53;53.20;100654.16;672422;29;1270;-89
2024/01/19 00:32:31;;;;;;;7.50;4.50;;;;;;;0.62;52.77;100671.84;667041;29;1204;-90
2024/01/19 00:32:52;;;;;;;5.82;4.22;;;;;;;0.60;53.04;100660.56;669828;29;1780;-89
2024/01/19 00:33:13;;;;;;;4.05;3.65;;;;;;;0.59;53.04;100652.78;669827;29;2002;-90
2024/01/19 00:33:33;;;;;;;4.45;4.05;;;;;;;0.61;53.22;100658.91;669252;29;1184;-89
2024/01/19 00:33:54;;;;;;;5.30;4.40;;;;;;;0.60;53.03;100675.09;671606;29;1610;-89
2024/01/19 00:34:16;;;;;;;6.00;4.43;;;;;;;0.50;52.67;100656.53;669842;29;992;-90
2024/01/19 00:34:37;;;;;;;5.82;4.13;;;;;;;0.66;53.15;100675.53;672929;29;1227;-89
2024/01/19 00:34:57;;;;;;;9.10;3.65;;;;;;;0.58;53.12;100659.59;664470;29;1427;-90
2024/01/19 00:35:18;;;;;;;13.43;3.72;;;;;;;0.57;52.68;100659.47;670391;29;1158;-90
2024/01/19 00:35:39;;;;;;;13.87;3.77;;;;;;;0.57;52.73;100656.91;668555;29;1089;-90
2024/01/19 00:35:59;;;;;;;9.75;4.03;;;;;;;0.50;53.07;100653.94;670034;29;965;-90
2024/01/19 00:36:20;;;;;;;6.28;4.05;;;;;;;0.60;52.89;100664.84;669740;29;1363;-89
2024/01/19 00:36:41;;;;;;;5.30;3.75;;;;;;;0.65;52.95;100673.72;672152;29;1210;-89
2024/01/19 00:37:02;;;;;;;5.03;3.70;;;;;;;0.61;52.65;100656.34;674928;29;1228;-90
2024/01/19 00:37:22;;;;;;;6.87;3.63;;;;;;;0.63;52.97;100665.03;671855;29;1249;-90
2024/01/19 00:37:43;;;;;;;7.10;3.80;;;;;;;0.64;52.92;100666.81;672101;29;1123;-90
2024/01/19 00:38:04;;;;;;;7.30;3.67;;;;;;;0.62;52.59;100668.38;667339;29;1201;-90
2024/01/19 00:38:24;;;;;;;5.30;3.80;;;;;;;0.61;52.65;100657.22;671221;29;1359;-89
2024/01/19 00:38:45;;;;;;;5.38;3.60;;;;;;;0.62;52.62;100664.16;672248;29;1281;-90
2024/01/19 00:39:06;;;;;;;5.57;3.83;;;;;;;0.64;52.71;100667.69;672324;29;1092;-89
2024/01/19 00:39:27;;;;;;;9.10;4.32;;;;;;;0.64;52.63;100672.84;667428;29;1248;-90
2024/01/19 00:39:47;;;;;;;10.93;4.80;;;;;;;0.62;52.58;100668.38;669561;29;1300;-90
2024/01/19 00:40:11;;;;;;;9.93;4.75;;;;;;;0.63;52.75;100676.19;670066;29;1322;-90
2024/01/19 00:40:32;;;;;;;5.97;4.05;;;;;;;0.64;52.72;100679.63;670592;29;1362;-89
2024/01/19 00:40:52;;;;;;;4.13;3.75;;;;;;;0.59;52.80;100665.63;669953;29;1420;-89
2024/01/19 00:41:13;;;;;;;4.30;3.90;;;;;;;0.53;52.93;100668.66;669777;29;1270;-90
2024/01/19 00:41:34;;;;;;;4.80;4.30;;;;;;;0.52;52.85;100656.59;669600;29;1161;-89
2024/01/19 00:41:54;;;;;;;5.13;4.40;;;;;;;0.67;52.88;100678.16;672270;29;1247;-89
2024/01/19 00:42:15;;;;;;;5.30;4.20;;;;;;;0.60;52.73;100667.41;668897;29;1061;-89
2024/01/19 00:42:36;;;;;;;5.50;4.20;;;;;;;0.63;52.49;100672.72;674137;29;1180;-89
2024/01/19 00:42:56;;;;;;;6.10;4.27;;;;;;;0.60;52.80;100675.09;672482;29;1288;-88
2024/01/19 00:43:17;;;;;;;5.95;4.40;;;;;;;0.58;52.73;100671.53;669557;29;1271;-90
2024/01/19 00:43:38;;;;;;;5.80;4.35;;;;;;;0.59;52.63;100675.91;672580;29;1480;-90
2024/01/19 00:43:59;;;;;;;4.88;4.25;;;;;;;0.57;52.56;100662.94;675066;29;1264;-90
2024/01/19 00:44:20;;;;;;;4.95;4.28;;;;;;;0.54;53.24;100678.16;670598;29;1547;-89
2024/01/19 00:44:40;;;;;;;4.45;4.05;;;;;;;0.55;52.94;100661.06;669693;29;1167;-90
2024/01/19 00:45:01;;;;;;;5.60;4.10;;;;;;;0.58;52.88;100664.72;672495;29;828;-89
2024/01/19 00:45:22;;;;;;;5.50;3.90;;;;;;;0.61;53.00;100676.88;669883;29;1012;-90
2024/01/19 00:45:43;;;;;;;7.28;3.88;;;;;;;0.61;53.10;100664.03;672273;29;965;-90
2024/01/19 00:46:03;;;;;;;6.45;3.70;;;;;;;0.66;52.90;100684.09;672328;29;1129;-89
2024/01/19 00:46:24;;;;;;;8.57;3.92;;;;;;;0.66;52.56;100676.41;674986;29;1167;-89
2024/01/19 00:46:45;;;;;;;6.53;4.00;;;;;;;0.65;52.77;100674.63;672217;29;1142;-90
2024/01/19 00:47:05;;;;;;;6.70;4.20;;;;;;;0.62;52.70;100668.38;669815;29;1256;-90
2024/01/19 00:47:26;;;;;;;4.63;4.10;;;;;;;0.65;52.78;100678.84;671872;29;1132;-89
2024/01/19 00:47:47;;;;;;;5.32;4.60;;;;;;;0.60;52.76;100669.97;677423;29;1302;-90
2024/01/19 00:48:27;;;;;;;6.90;4.80;;;;;;;0.63;53.14;100667.59;675121;29;738;-90
2024/01/19 00:48:48;;;;;;;6.22;4.35;;;;;;;0.65;52.76;100678.84;671529;29;1298;-89
2024/01/19 00:49:08;;;;;;;4.43;4.03;;;;;;;0.66;52.65;100672.94;672342;29;1323;-90
2024/01/19 00:49:29;;;;;;;4.63;4.13;;;;;;;0.60;52.56;100664.84;675102;29;1090;-89
2024/01/19 00:49:49;;;;;;;5.37;4.30;;;;;;;0.62;52.96;100676.09;676948;29;1262;-89
2024/01/19 00:50:10;;;;;;;6.43;4.32;;;;;;;0.65;53.00;100673.72;672431;29;1102;-90
2024/01/19 00:50:30;;;;;;;6.07;4.30;;;;;;;0.63;52.58;100671.06;669861;29;1188;-90
2024/01/19 00:50:51;;;;;;;5.60;4.03;;;;;;;0.68;52.69;100684.22;669950;29;1507;-90
2024/01/19 00:51:12;;;;;;;5.40;4.28;;;;;;;0.64;52.75;100687.34;674942;29;1064;-89
2024/01/19 00:51:33;;;;;;;11.10;4.85;;;;;;;0.67;52.82;100692.72;674744;29;1188;-89
2024/01/19 00:51:53;;;;;;;11.23;5.25;;;;;;;0.61;52.71;100676.88;672274;29;1511;-89
2024/01/19 00:52:14;;;;;;;11.52;5.00;;;;;;;0.60;52.69;100681.13;672453;29;1202;-89
2024/01/19 00:52:35;;;;;;;7.27;4.47;;;;;;;0.63;52.45;100680.44;672034;29;1200;-89
2024/01/19 00:52:55;;;;;;;6.97;4.20;;;;;;;0.58;52.85;100682.69;675098;29;831;-89
2024/01/19 00:53:16;;;;;;;6.05;4.10;;;;;;;0.59;52.99;100673.34;674768;29;1914;-90
2024/01/19 00:53:37;;;;;;;6.50;3.80;;;;;;;0.59;53.00;100684.47;672250;29;937;-89
2024/01/19 00:53:58;;;;;;;6.93;3.97;;;;;;;0.64;53.05;100692.47;668482;29;1694;-89
2024/01/19 00:54:18;;;;;;;7.50;3.88;;;;;;;0.55;52.69;100671.31;666788;29;1375;-89
2024/01/19 00:54:39;;;;;;;6.47;4.53;;;;;;;0.61;52.65;100682.88;669688;29;1520;-90
2024/01/19 00:55:00;;;;;;;10.85;4.45;;;;;;;0.60;52.68;100685.38;673655;29;1458;-89
2024/01/19 00:55:20;;;;;;;10.93;4.60;;;;;;;0.49;53.03;100675.25;672052;29;1440;-90
2024/01/19 00:55:41;;;;;;;9.93;3.90;;;;;;;0.51;53.32;100671.13;673233;29;1166;-89
2024/01/19 00:56:03;;;;;;;15.63;4.18;;;;;;;0.59;53.20;100679.34;674783;29;1470;-90
2024/01/19 00:56:23;;;;;;;15.60;4.35;;;;;;;0.48;53.42;100675.19;672369;29;1113;-89
2024/01/19 00:56:44;;;;;;;21.20;4.82;;;;;;;0.54;53.33;100683.28;677359;29;1083;-90
2024/01/19 00:57:05;;;;;;;10.15;4.13;;;;;;;0.50;53.27;100679.63;672213;29;1330;-89
2024/01/19 00:57:25;;;;;;;9.90;4.20;;;;;;;0.52;53.17;100672.91;669273;29;1261;-90
2024/01/19 00:57:46;;;;;;;5.10;4.10;;;;;;;0.50;53.12;100674.50;670476;29;1563;-89
2024/01/19 00:58:07;;;;;;;6.50;4.53;;;;;;;0.48;53.49;100670.91;667590;29;1273;-89
2024/01/19 00:58:27;;;;;;;5.85;4.32;;;;;;;0.53;53.03;100669.56;672312;29;1454;-89
2024/01/19 00:58:48;;;;;;;6.43;4.20;;;;;;;0.62;53.07;100687.28;672143;29;1171;-89
2024/01/19 00:59:08;;;;;;;5.60;4.07;;;;;;;0.50;53.20;100669.38;669940;29;1273;-90
2024/01/19 00:59:29;;;;;;;6.65;3.95;;;;;;;0.49;52.92;100670.13;672349;29;1267;-89
2024/01/19 00:59:49;;;;;;;6.43;4.07;;;;;;;0.56;53.58;100688.50;672067;29;1303;-89
2024/01/19 01:00:11;;;;;;;5.97;4.00;;;;;;;0.48;53.42;100675.19;674875;29;1257;-90
2024/01/19 01:00:31;;;;;;;6.15;4.10;;;;;;;0.49;52.92;100670.13;672011;29;1657;-90
2024/01/19 01:00:54;;;;;;;7.57;4.40;;;;;;;0.56;53.14;100678.25;672035;29;1066;-90
2024/01/19 01:01:15;;;;;;;6.25;4.20;;;;;;;0.46;53.40;100671.59;672351;29;1533;-90
2024/01/19 01:01:36;;;;;;;5.60;4.43;;;;;;;0.44;53.41;100674.06;669999;29;934;-89
2024/01/19 01:01:56;;;;;;;7.65;4.70;;;;;;;0.45;53.39;100670.72;669807;29;1190;-89
2024/01/19 01:02:17;;;;;;;7.95;4.60;;;;;;;0.46;53.17;100671.59;672272;29;1274;-89
2024/01/19 01:02:38;;;;;;;9.47;4.77;;;;;;;0.44;53.42;100666.38;669715;29;1068;-89
2024/01/19 01:02:58;;;;;;;7.50;4.80;;;;;;;0.54;52.94;100685.88;674772;29;1420;-89
2024/01/19 01:03:26;;;;;;;8.05;5.07;;;;;;;0.43;53.27;100663.69;672158;29;1394;-90
2024/01/19 01:03:48;;;;;;;5.28;4.35;;;;;;;0.41;53.47;100668.72;671983;29;1420;-89
2024/01/19 01:04:08;;;;;;;4.50;4.00;;;;;;;0.41;53.53;100666.16;669665;29;1277;-90
2024/01/19 01:04:29;;;;;;;8.83;4.40;;;;;;;0.46;53.17;100677.63;672349;29;968;-89
2024/01/19 01:04:50;;;;;;;8.70;4.57;;;;;;;0.50;53.16;100673.59;669540;29;1299;-90
2024/01/19 01:05:11;;;;;;;8.97;4.53;;;;;;;0.43;53.36;100672.31;671976;29;1427;-89
2024/01/19 01:05:32;;;;;;;5.35;4.47;;;;;;;0.40;53.71;100669.50;667082;29;1338;-90
2024/01/19 01:05:56;;;;;;;11.00;4.60;;;;;;;0.45;53.22;100674.94;666919;29;1427;-89
2024/01/19 01:06:17;;;;;;;14.68;4.68;;;;;;;0.43;53.42;100685.13;669158;29;1015;-89
2024/01/19 01:06:38;;;;;;;15.63;4.90;;;;;;;0.40;53.88;100684.91;671437;29;1119;-90
2024/01/19 01:07:01;;;;;;;9.80;4.80;;;;;;;0.39;54.00;100678.00;674940;29;970;-90
2024/01/19 01:07:23;;;;;;;6.05;4.47;;;;;;;0.39;54.20;100665.16;674880;29;1402;-89
2024/01/19 01:07:43;;;;;;;4.38;3.97;;;;;;;0.42;53.61;100679.88;671973;29;1311;-90
2024/01/19 01:08:04;;;;;;;6.17;3.97;;;;;;;0.51;53.93;100680.50;669487;29;1267;-89
2024/01/19 01:14:09;;;;;;;10.43;5.45;;;;;;;0.65;53.50;100690.03;677708;29;1169;-89
2024/01/19 01:14:30;;;;;;;12.55;5.13;;;;;;;0.66;53.72;100685.78;674268;29;1375;-89
2024/01/19 01:14:50;;;;;;;12.23;5.00;;;;;;;0.66;53.35;100691.81;673953;29;1262;-89
2024/01/19 01:15:11;;;;;;;8.65;4.40;;;;;;;0.67;53.23;100693.59;674710;29;1104;-89
2024/01/19 01:15:32;;;;;;;5.97;4.53;;;;;;;0.68;53.45;100694.47;670045;29;1521;-89
2024/01/19 01:15:52;;;;;;;6.05;4.30;;;;;;;0.60;53.48;100685.38;669456;29;1383;-89
2024/01/19 01:16:13;;;;;;;6.40;4.80;;;;;;;0.64;53.66;100692.47;667272;29;1359;-90
2024/01/19 01:16:34;;;;;;;7.18;5.10;;;;;;;0.58;53.28;100677.56;667016;29;1148;-89
2024/01/19 01:16:55;;;;;;;6.90;5.30;;;;;;;0.63;53.67;100695.84;672256;29;1287;-90
2024/01/19 01:17:16;;;;;;;7.30;5.03;;;;;;;0.63;53.59;100695.84;672073;29;996;-89
2024/01/19 01:17:36;;;;;;;5.72;4.63;;;;;;;0.66;53.39;100690.94;675022;29;930;-89
2024/01/19 01:17:57;;;;;;;8.47;4.70;;;;;;;0.65;53.30;100694.25;674663;29;1484;-89
2024/01/19 01:18:19;;;;;;;8.90;5.07;;;;;;;0.55;53.68;100679.94;677144;29;1501;-89
2024/01/19 01:18:40;;;;;;;9.07;5.20;;;;;;;0.62;53.63;100691.50;674290;29;1325;-89
2024/01/19 01:19:01;;;;;;;12.95;5.13;;;;;;;0.66;53.25;100694.38;674436;29;1268;-89
2024/01/19 01:19:22;;;;;;;13.00;5.10;;;;;;;0.68;53.38;100702.19;669328;29;1548;-89
2024/01/19 01:19:42;;;;;;;16.43;5.33;;;;;;;0.63;53.56;100695.84;669271;29;1123;-89
2024/01/19 01:20:04;;;;;;;11.20;5.20;;;;;;;0.58;53.62;100682.69;669577;29;1088;-89
2024/01/19 01:20:24;;;;;;;10.02;5.03;;;;;;;0.63;53.63;100695.84;672041;29;1518;-89
2024/01/19 01:20:45;;;;;;;6.70;4.60;;;;;;;0.58;53.85;100692.06;672008;29;1183;-89
2024/01/19 01:21:07;;;;;;;7.40;4.97;;;;;;;0.62;53.45;100697.53;671532;29;1339;-89
2024/01/19 01:21:28;;;;;;;8.13;4.90;;;;;;;0.64;53.96;100700.19;674732;29;1358;-89
2024/01/19 01:21:48;;;;;;;7.75;4.90;;;;;;;0.59;53.50;100694.75;672061;29;1335;-90
2024/01/19 01:22:12;;;;;;;10.60;5.47;;;;;;;0.59;53.69;100688.75;667162;29;1168;-90
2024/01/19 01:22:33;;;;;;;11.30;5.80;;;;;;;0.62;53.96;100700.09;669716;29;1371;-90
2024/01/19 01:22:53;;;;;;;15.00;6.03;;;;;;;0.58;53.77;100686.94;669399;29;1088;-90
2024/01/19 01:23:14;;;;;;;10.93;5.30;;;;;;;0.63;53.51;100700.97;668602;29;1476;-89
2024/01/19 01:23:34;;;;;;;14.38;5.10;;;;;;;0.62;54.12;100696.63;671932;29;1093;-89
2024/01/19 01:23:55;;;;;;;9.83;4.60;;;;;;;0.61;53.80;100692.28;671671;29;999;-90
2024/01/19 01:24:16;;;;;;;13.43;4.70;;;;;;;0.64;54.10;100700.19;669808;29;1170;-89
2024/01/19 01:24:36;;;;;;;8.80;4.70;;;;;;;0.68;54.01;100704.75;666940;29;1268;-89
2024/01/19 01:24:57;;;;;;;12.40;5.07;;;;;;;0.68;53.96;100699.63;669577;29;1453;-89
2024/01/19 01:25:17;;;;;;;9.63;4.82;;;;;;;0.60;54.01;100687.94;672154;29;1303;-89
2024/01/19 01:25:38;;;;;;;8.38;4.50;;;;;;;0.61;53.96;100688.03;674618;29;1360;-89
2024/01/19 01:25:59;;;;;;;6.10;4.43;;;;;;;0.56;53.83;100688.50;669739;29;1500;-89
2024/01/19 01:26:19;;;;;;;6.38;4.70;;;;;;;0.64;53.84;100700.19;672083;29;1405;-89
2024/01/19 01:26:40;;;;;;;8.30;5.15;;;;;;;0.59;54.00;100688.75;669247;29;1291;-89
2024/01/19 01:27:00;;;;;;;10.95;5.50;;;;;;;0.69;53.57;100701.41;674810;29;1179;-89
2024/01/19 01:27:21;;;;;;;10.00;5.33;;;;;;;0.74;53.77;100711.97;671073;29;1397;-89
2024/01/19 01:27:42;;;;;;;10.25;5.70;;;;;;;0.66;53.71;100698.63;671219;29;993;-89
2024/01/19 01:28:03;;;;;;;7.28;5.43;;;;;;;0.65;53.60;100691.69;672263;29;1361;-89
2024/01/19 01:28:23;;;;;;;8.98;5.63;;;;;;;0.71;53.38;100699.81;672417;29;989;-89
2024/01/19 01:28:44;;;;;;;7.65;5.07;;;;;;;0.63;53.76;100698.41;670804;29;1255;-88
2024/01/19 01:29:04;;;;;;;7.37;5.07;;;;;;;0.57;53.54;100686.06;671405;29;1386;-89
2024/01/19 01:29:25;;;;;;;6.43;4.80;;;;;;;0.66;53.91;100699.50;672254;29;1258;-89
2024/01/19 01:29:46;;;;;;;7.63;5.35;;;;;;;0.62;53.64;100700.09;675017;29;1193;-90
2024/01/19 01:30:07;;;;;;;7.55;5.53;;;;;;;0.60;53.79;100698.22;672182;29;1248;-90
2024/01/19 01:30:28;;;;;;;7.68;5.82;;;;;;;0.59;53.46;100694.75;672107;29;1199;-89
2024/01/19 01:30:49;;;;;;;6.50;5.45;;;;;;;0.65;53.43;100701.97;674668;29;1297;-90
2024/01/19 01:31:09;;;;;;;6.75;4.97;;;;;;;0.71;53.89;100702.38;669727;29;1206;-89
2024/01/19 01:31:30;;;;;;;7.43;4.68;;;;;;;0.63;53.66;100693.28;674756;29;1188;-89
2024/01/19 01:31:51;;;;;;;8.50;4.77;;;;;;;0.60;53.76;100693.09;674264;29;1185;-89
2024/01/19 01:32:12;;;;;;;7.47;4.85;;;;;;;0.63;53.77;100695.84;677368;29;1318;-89
2024/01/19 01:32:33;;;;;;;7.22;5.30;;;;;;;0.68;53.54;100702.19;669523;29;1552;-89
2024/01/19 01:32:54;;;;;;;8.57;5.25;;;;;;;0.64;53.66;100697.63;674607;29;1395;-89
2024/01/19 01:33:14;;;;;;;7.43;4.80;;;;;;;0.65;53.62;100691.69;669484;29;1915;-89
2024/01/19 01:33:35;;;;;;;8.40;4.57;;;;;;;0.65;53.47;100694.25;671917;29;1359;-89
2024/01/19 01:33:56;;;;;;;8.85;4.90;;;;;;;0.68;53.65;100694.47;669665;29;818;-90
2024/01/19 01:34:16;;;;;;;9.57;5.10;;;;;;;0.67;53.23;100706.44;672260;29;1072;-89
2024/01/19 01:34:37;;;;;;;8.03;5.10;;;;;;;0.62;53.58;100699.22;674388;29;1529;-89
2024/01/19 01:34:58;;;;;;;6.47;4.90;;;;;;;0.60;53.96;100691.38;672408;29;1224;-89
2024/01/19 01:35:18;;;;;;;6.70;5.00;;;;;;;0.64;53.47;100697.63;674638;29;1225;-89
2024/01/19 01:35:39;;;;;;;7.40;5.17;;;;;;;0.78;53.88;100722.56;669392;29;1147;-89
2024/01/19 01:35:59;;;;;;;5.85;4.90;;;;;;;0.74;53.66;100711.97;669856;29;872;-89
2024/01/19 01:36:20;;;;;;;6.30;4.93;;;;;;;0.76;53.71;100716.44;669546;29;1244;-89
2024/01/19 01:36:41;;;;;;;8.37;5.37;;;;;;;0.66;53.55;100707.22;672002;29;1197;-89
2024/01/19 01:37:01;;;;;;;8.88;5.57;;;;;;;0.73;53.64;100707.63;669732;29;997;-90
2024/01/19 01:37:22;;;;;;;7.45;4.93;;;;;;;0.71;53.50;100714.34;668059;29;1297;-89
2024/01/19 01:37:43;;;;;;;5.78;4.60;;;;;;;0.64;53.77;100708.81;670517;29;1291;-89
2024/01/19 01:38:04;;;;;;;6.63;4.68;;;;;;;0.64;53.69;100702.75;671727;29;1228;-89
2024/01/19 01:38:40;;;;;;;9.27;5.30;;;;;;;0.70;53.54;100713.44;669389;29;1270;-89
2024/01/19 01:39:01;;;;;;;7.88;5.00;;;;;;;0.74;53.62;100724.81;673524;29;1399;-89
2024/01/19 01:39:21;;;;;;;7.63;5.10;;;;;;;0.73;53.55;100729.06;672279;29;1234;-89
2024/01/19 01:39:42;;;;;;;7.28;5.40;;;;;;;0.65;53.69;100708.00;674692;29;1395;-89
2024/01/19 01:40:05;;;;;;;7.65;5.72;;;;;;;0.78;53.57;100722.56;674891;29;1462;-89
2024/01/19 01:40:25;;;;;;;7.55;5.47;;;;;;;0.68;53.46;100720.19;672096;29;1272;-90
2024/01/19 01:40:46;;;;;;;6.95;5.43;;;;;;;0.68;53.36;100715.03;670955;29;1336;-89
2024/01/19 01:41:07;;;;;;;6.65;5.30;;;;;;;0.72;53.27;100726.41;669613;29;1249;-89
2024/01/19 01:41:28;;;;;;;6.43;4.95;;;;;;;0.75;53.51;100722.38;669659;29;1340;-89
2024/01/19 01:41:48;;;;;;;7.50;4.82;;;;;;;0.76;53.70;100720.66;669695;29;1057;-89
2024/01/19 01:42:09;;;;;;;11.17;4.90;;;;;;;0.62;53.75;100710.38;671574;29;1051;-88
2024/01/19 01:43:06;;;;;;;10.60;5.13;;;;;;;0.76;53.74;100729.28;672184;29;1131;-89
2024/01/19 01:43:27;;;;;;;9.05;5.15;;;;;;;0.67;53.32;100732.09;672004;29;1388;-89
2024/01/19 01:43:48;;;;;;;7.97;5.30;;;;;;;0.60;53.84;100718.75;674615;29;1423;-89
2024/01/19 01:44:08;;;;;;;7.27;5.10;;;;;;;0.70;53.56;100735.66;669513;29;1291;-90
2024/01/19 01:44:29;;;;;;;7.90;5.32;;;;;;;0.61;53.76;100712.84;672278;29;1450;-88
2024/01/19 01:44:49;;;;;;;6.85;5.00;;;;;;;0.69;53.69;100734.78;673905;29;1367;-88
2024/01/19 01:45:10;;;;;;;5.17;4.67;;;;;;;0.57;53.91;100718.53;674905;29;1240;-89
2024/01/19 01:45:31;;;;;;;5.25;4.70;;;;;;;0.74;53.72;100736.00;677172;29;979;-90
2024/01/19 01:45:51;;;;;;;6.10;4.70;;;;;;;0.69;53.85;100726.19;672046;29;1169;-89
2024/01/19 01:46:12;;;;;;;7.22;5.20;;;;;;;0.67;53.59;100718.41;672015;29;1531;-89
2024/01/19 01:46:33;;;;;;;6.35;5.15;;;;;;;0.61;53.54;100712.84;672176;29;1016;-89
2024/01/19 01:46:54;;;;;;;5.30;4.80;;;;;;;0.65;53.96;100727.66;671913;29;1485;-89
2024/01/19 01:47:15;;;;;;;5.30;4.80;;;;;;;0.63;53.91;100724.09;671705;29;1165;-90
2024/01/19 01:47:36;;;;;;;4.95;4.43;;;;;;;0.63;53.68;100718.97;672073;29;1466;-88
2024/01/19 01:47:56;;;;;;;5.30;4.60;;;;;;;0.61;53.91;100723.97;672249;29;1294;-90
2024/01/19 01:48:18;;;;;;;5.97;5.00;;;;;;;0.59;54.00;100722.13;669485;29;1117;-89
2024/01/19 01:48:39;;;;;;;6.88;5.40;;;;;;;0.61;53.86;100723.13;671967;29;1240;-89
2024/01/19 01:49:00;;;;;;;7.70;5.80;;;;;;;0.66;53.85;100726.91;672079;29;1215;-88
2024/01/19 01:49:21;;;;;;;7.87;5.77;;;;;;;0.71;54.15;100734.91;672246;29;1215;-89
2024/01/19 01:49:41;;;;;;;8.23;5.97;;;;;;;0.70;53.74;100731.44;674478;29;1550;-89